Time;durP1;ratioP1;P1;durP2;ratioP2;P2;SDS_P1;SDS_P2;PMS_P1;PMS_P2;Temp;Humidity;BMP_temperature;BMP_pressure;BME280_temperature;BME280_humidity;BME280_pressure;Samples;Min_cycle;Max_cycle;Signal;HPM_P1;HPM_P2
2021/04/11 00:12:49;;;;;;;102.32;54.67;;;205.30;1715.20;;;;;;5001303;23;20055;-92
2021/04/11 00:15:16;;;;;;;86.93;48.05;;;204.80;1766.40;;;;;;4934212;28;20504;-91
2021/04/11 00:23:27;;;;;;;80.65;44.95;;;205.40;1740.80;;;;;;4940153;23;20031;-93
2021/04/11 00:26:10;;;;;;;52.22;31.45;;;205.10;1740.80;;;;;;4932534;29;20036;-92
2021/04/11 00:31:34;;;;;;;48.55;27.30;;;205.00;1766.40;;;;;;5071845;23;20061;-93
2021/04/11 00:34:04;;;;;;;40.03;23.15;;;204.90;1766.40;;;;;;5011699;23;20456;-95
2021/04/11 00:36:39;;;;;;;32.17;18.30;;;204.90;1766.40;;;;;;4907212;29;20036;-92
2021/04/11 00:39:05;;;;;;;41.50;21.67;;;204.80;1740.80;;;;;;4921959;29;20503;-92
2021/04/11 00:41:53;;;;;;;34.47;20.90;;;204.80;1740.80;;;;;;4922894;29;20043;-91
2021/04/11 00:44:22;;;;;;;36.60;20.17;;;204.90;1740.80;;;;;;4924476;23;20052;-93
2021/04/11 00:47:00;;;;;;;34.85;19.10;;;204.90;1740.80;;;;;;5068273;23;20063;-92
2021/04/11 00:50:09;;;;;;;25.75;15.75;;;204.80;1740.80;;;;;;4923987;29;20079;-92
2021/04/11 00:52:41;;;;;;;32.70;17.25;;;180.10;1766.40;;;;;;4925433;29;20044;-93
2021/04/11 00:55:24;;;;;;;32.58;19.15;;;179.80;1766.40;;;;;;4925971;29;20032;-94
2021/04/11 00:57:51;;;;;;;31.90;17.58;;;180.10;1766.40;;;;;;4925439;29;20028;-96
2021/04/11 01:00:18;;;;;;;29.23;17.08;;;180.10;1766.40;;;;;;4925613;29;20115;-94
2021/04/11 01:02:45;;;;;;;29.25;14.48;;;204.80;1766.40;;;;;;4926485;29;20028;-93
2021/04/11 01:05:41;;;;;;;23.05;12.07;;;204.80;1740.80;;;;;;4925264;29;20103;-93
2021/04/11 01:11:29;;;;;;;23.15;13.95;;;204.80;1715.20;;;;;;4924734;29;20038;-94
2021/04/11 01:14:08;;;;;;;24.02;12.43;;;180.00;1740.80;;;;;;4939402;23;20055;-93
2021/04/11 01:16:46;;;;;;;20.33;11.65;;;179.90;1766.40;;;;;;4923666;29;20472;-92
2021/04/11 01:19:36;;;;;;;18.48;12.32;;;179.90;1766.40;;;;;;5246561;23;20094;-94
2021/04/11 01:33:19;;;;;;;29.40;17.40;;;179.70;1868.80;;;;;;4921691;29;20051;-94
2021/04/11 01:35:46;;;;;;;32.85;18.70;;;179.40;1868.80;;;;;;4932643;23;20056;-92
2021/04/11 01:38:14;;;;;;;38.78;21.15;;;179.60;1817.60;;;;;;4928586;23;20063;-92
2021/04/11 01:44:36;;;;;;;54.67;32.38;;;154.50;1945.60;;;;;;4941115;23;20083;-92
2021/04/11 01:47:06;;;;;;;66.88;39.90;;;154.50;1920.00;;;;;;4916377;29;20121;-92
2021/04/11 01:49:32;;;;;;;69.72;41.97;;;179.30;1920.00;;;;;;4917587;29;20037;-92
2021/04/11 01:52:32;;;;;;;70.10;40.58;;;179.30;1920.00;;;;;;4918633;29;20029;-91
2021/04/11 01:55:14;;;;;;;69.03;39.58;;;179.50;1945.60;;;;;;4910695;29;20101;-92
2021/04/11 01:57:43;;;;;;;67.30;38.78;;;179.40;1920.00;;;;;;4913714;29;20121;-92
2021/04/11 02:00:50;;;;;;;78.88;41.53;;;179.60;1894.40;;;;;;4915848;29;20052;-92
2021/04/11 02:03:32;;;;;;;66.68;38.30;;;179.60;1894.40;;;;;;4921305;29;20035;-93
2021/04/11 02:06:20;;;;;;;69.65;42.65;;;179.70;1843.20;;;;;;4909143;29;20043;-93
2021/04/11 02:09:01;;;;;;;79.65;44.42;;;179.70;1894.40;;;;;;4904804;29;20059;-93
2021/04/11 02:11:27;;;;;;;87.88;48.63;;;179.50;1894.40;;;;;;4905195;29;20088;-93
2021/04/11 02:14:02;;;;;;;74.88;44.50;;;179.60;1843.20;;;;;;4901453;29;20040;-93
2021/04/11 02:16:32;;;;;;;74.72;42.47;;;179.50;1920.00;;;;;;4901250;29;20032;-93
2021/04/11 02:19:25;;;;;;;62.55;33.35;;;179.60;1894.40;;;;;;4901034;29;20033;-93
2021/04/11 02:22:23;;;;;;;45.95;26.73;;;179.70;1868.80;;;;;;4899862;29;20131;-91
2021/04/11 02:27:22;;;;;;;30.90;18.25;;;179.50;1843.20;;;;;;4927052;23;20052;-91
2021/04/11 02:29:52;;;;;;;29.40;17.02;;;179.90;1817.60;;;;;;4922303;29;20044;-92
2021/04/11 02:32:22;;;;;;;27.42;16.52;;;179.50;1817.60;;;;;;4926372;29;20032;-92
2021/04/11 02:34:48;;;;;;;24.67;15.50;;;179.50;1817.60;;;;;;4940716;29;20028;-94
2021/04/11 02:37:50;;;;;;;26.73;15.18;;;179.50;1817.60;;;;;;4956308;29;20036;-94
2021/04/11 02:40:45;;;;;;;22.58;14.23;;;179.50;1817.60;;;;;;4924426;29;20036;-93
2021/04/11 02:43:13;;;;;;;22.83;11.90;;;179.50;1817.60;;;;;;4924841;29;20071;-92
2021/04/11 02:45:42;;;;;;;21.60;12.82;;;179.40;1792.00;;;;;;4925015;29;20519;-94
2021/04/11 02:48:20;;;;;;;21.05;11.10;;;179.40;1843.20;;;;;;4923695;29;20032;-93
2021/04/11 02:50:56;;;;;;;18.85;10.43;;;179.30;1843.20;;;;;;4924209;29;20024;-94
2021/04/11 02:53:27;;;;;;;19.73;10.77;;;179.30;1843.20;;;;;;4922351;29;20044;-94
2021/04/11 02:56:02;;;;;;;24.10;10.73;;;179.30;1868.80;;;;;;4922032;29;20036;-93
2021/04/11 02:58:44;;;;;;;21.60;12.57;;;154.50;1868.80;;;;;;4925573;23;20064;-93
2021/04/11 03:01:35;;;;;;;20.05;13.15;;;179.30;1868.80;;;;;;4925984;23;20493;-94
2021/04/11 03:04:01;;;;;;;28.25;14.90;;;179.30;1843.20;;;;;;4906568;29;20037;-93
2021/04/11 03:06:44;;;;;;;26.35;15.30;;;179.30;1868.80;;;;;;4918833;29;20032;-94
2021/04/11 03:09:24;;;;;;;25.98;15.32;;;179.30;1920.00;;;;;;4920138;29;20052;-93
2021/04/11 03:12:08;;;;;;;28.75;16.90;;;179.30;1894.40;;;;;;4918975;29;20123;-94
2021/04/11 03:14:49;;;;;;;33.30;18.23;;;179.30;1894.40;;;;;;4919400;29;20495;-93
2021/04/11 03:17:30;;;;;;;39.88;22.77;;;179.20;1920.00;;;;;;4919028;29;20032;-94
2021/04/11 03:20:24;;;;;;;48.53;28.42;;;179.30;1945.60;;;;;;4920622;29;20042;-94
2021/04/11 03:23:12;;;;;;;56.00;36.08;;;179.30;1945.60;;;;;;4921126;29;20028;-96
2021/04/11 03:25:45;;;;;;;61.92;40.60;;;179.30;1945.60;;;;;;4924196;29;20051;-94
2021/04/11 03:28:37;;;;;;;50.60;28.63;;;179.20;1971.20;;;;;;4918830;29;20032;-92
2021/04/11 03:31:35;;;;;;;35.25;21.58;;;154.50;1971.20;;;;;;4929239;29;20487;-92
2021/04/11 03:34:18;;;;;;;33.38;19.38;;;154.50;1945.60;;;;;;4927600;29;20083;-92
2021/04/11 03:36:52;;;;;;;37.10;19.63;;;154.50;1996.80;;;;;;4929227;28;20580;-92
2021/04/11 03:39:22;;;;;;;31.08;18.98;;;154.50;1996.80;;;;;;4920826;29;20087;-92
2021/04/11 03:41:51;;;;;;;38.67;20.98;;;154.40;1996.80;;;;;;4923277;29;20035;-93
2021/04/11 03:44:24;;;;;;;40.50;20.43;;;154.40;1996.80;;;;;;4921427;29;20032;-93
2021/04/11 03:49:29;;;;;;;35.78;20.10;;;154.40;2022.40;;;;;;4930350;23;20131;-94
2021/04/11 03:52:34;;;;;;;40.05;22.30;;;154.30;2048.00;;;;;;4918291;29;20051;-93
2021/04/11 03:55:08;;;;;;;45.77;23.33;;;154.40;2048.00;;;;;;4923422;23;20056;-92
2021/04/11 03:57:54;;;;;;;43.13;22.07;;;154.40;2022.40;;;;;;4919343;29;20032;-93
2021/04/11 04:00:46;;;;;;;33.77;18.97;;;154.30;2022.40;;;;;;4924702;23;20428;-92
2021/04/11 04:03:16;;;;;;;33.53;19.50;;;154.30;2022.40;;;;;;4923107;29;20052;-93
2021/04/11 04:05:52;;;;;;;30.50;18.25;;;154.40;1971.20;;;;;;4987148;23;20071;-93
2021/04/11 04:08:18;;;;;;;30.20;17.77;;;154.30;1996.80;;;;;;4941300;28;20032;-94
2021/04/11 04:11:37;;;;;;;29.47;17.33;;;154.20;1996.80;;;;;;4941231;28;20071;-91
2021/04/11 04:17:49;;;;;;;29.60;16.27;;;154.20;1996.80;;;;;;4931088;23;20119;-92
2021/04/11 04:20:38;;;;;;;24.97;13.57;;;154.20;1971.20;;;;;;4922460;29;20307;-93
2021/04/11 04:23:44;;;;;;;25.50;14.07;;;154.20;1971.20;;;;;;4925241;23;20059;-94
2021/04/11 04:26:58;;;;;;;28.20;14.57;;;154.20;1971.20;;;;;;4918397;29;20040;-96
2021/04/11 04:29:47;;;;;;;23.47;13.60;;;154.20;1971.20;;;;;;4918156;29;20047;-93
2021/04/11 04:32:40;;;;;;;23.40;13.53;;;154.20;1971.20;;;;;;4917513;29;20103;-93
2021/04/11 04:35:30;;;;;;;28.30;14.93;;;154.20;1996.80;;;;;;4919509;29;20043;-92
2021/04/11 04:38:15;;;;;;;27.93;15.70;;;154.20;1996.80;;;;;;4917502;29;20028;-93
2021/04/11 04:41:28;;;;;;;27.90;15.23;;;154.20;2022.40;;;;;;4924423;23;20048;-93
2021/04/11 04:44:32;;;;;;;24.58;15.18;;;154.20;1996.80;;;;;;4924988;23;20075;-92
2021/04/11 04:47:48;;;;;;;29.37;16.80;;;154.20;1996.80;;;;;;4924673;23;20056;-93
2021/04/11 04:50:46;;;;;;;30.23;16.30;;;154.20;1971.20;;;;;;4882053;29;20047;-92
2021/04/11 04:53:42;;;;;;;24.25;17.27;;;154.20;1996.80;;;;;;4882119;29;20084;-93
2021/04/11 04:56:15;;;;;;;24.67;15.30;;;154.20;2022.40;;;;;;4882805;29;20041;-93
2021/04/11 04:59:05;;;;;;;29.77;17.33;;;154.20;1996.80;;;;;;4897880;23;20146;-92
2021/04/11 05:01:45;;;;;;;40.57;23.67;;;154.30;2022.40;;;;;;4941871;23;20519;-92
2021/04/11 05:04:29;;;;;;;61.10;32.77;;;154.30;2022.40;;;;;;4912901;29;20044;-93
2021/04/11 05:07:17;;;;;;;52.20;30.00;;;154.40;1996.80;;;;;;4914132;29;20029;-90
2021/04/11 05:09:48;;;;;;;59.37;32.70;;;154.40;1971.20;;;;;;4913528;29;20057;-93
2021/04/11 05:15:44;;;;;;;74.00;43.55;;;154.40;2022.40;;;;;;4949001;23;20099;-93
2021/04/11 05:18:54;;;;;;;58.83;32.77;;;154.30;2048.00;;;;;;4922989;29;20159;-94
2021/04/11 05:21:25;;;;;;;53.70;29.13;;;154.40;2022.40;;;;;;4882674;29;20063;-93
2021/04/11 05:24:19;;;;;;;48.53;26.70;;;154.30;2048.00;;;;;;4883417;29;20029;-93
2021/04/11 05:27:11;;;;;;;36.20;24.00;;;154.40;2073.60;;;;;;4903609;29;20041;-93
2021/04/11 05:30:21;;;;;;;37.90;22.67;;;179.20;2022.40;;;;;;4904820;29;20009;-92
2021/04/11 05:33:00;;;;;;;41.13;23.33;;;179.20;2022.40;;;;;;5034525;23;20032;-93
2021/04/11 05:38:23;;;;;;;36.57;20.90;;;179.50;1996.80;;;;;;5333058;23;20044;-93
2021/04/11 05:41:23;;;;;;;27.23;17.25;;;179.50;1996.80;;;;;;4942401;28;20091;-92
2021/04/11 05:44:15;;;;;;;23.98;14.80;;;179.60;1971.20;;;;;;4939973;29;20028;-94
2021/04/11 05:47:38;;;;;;;28.45;16.13;;;179.70;1920.00;;;;;;4942618;28;20087;-93
2021/04/11 05:50:09;;;;;;;28.20;15.73;;;179.70;1920.00;;;;;;4907263;29;20651;-93
2021/04/11 05:53:03;;;;;;;37.72;19.05;;;179.80;1945.60;;;;;;4905629;29;20020;-93
2021/04/11 05:58:23;;;;;;;31.97;19.60;;;180.00;1945.60;;;;;;4948826;23;20116;-93
2021/04/11 06:01:11;;;;;;;32.90;20.20;;;204.80;1945.60;;;;;;4940898;29;20090;-94
2021/04/11 06:03:57;;;;;;;31.00;21.85;;;204.80;1920.00;;;;;;4941701;28;20024;-94
2021/04/11 06:06:47;;;;;;;29.27;18.85;;;205.00;1920.00;;;;;;4943600;28;20026;-93
2021/04/11 06:10:22;;;;;;;30.90;17.08;;;205.10;1894.40;;;;;;4933399;29;20496;-94
2021/04/11 06:13:00;;;;;;;31.85;21.08;;;205.20;1868.80;;;;;;4913595;29;20053;-95
2021/04/11 06:15:46;;;;;;;27.65;16.75;;;205.20;1843.20;;;;;;4907913;29;20119;-93
2021/04/11 06:18:31;;;;;;;28.70;19.35;;;205.30;1817.60;;;;;;4916174;29;20116;-94
2021/04/11 06:21:01;;;;;;;29.48;16.83;;;205.50;1817.60;;;;;;4918431;29;20029;-92
2021/04/11 06:24:39;;;;;;;26.98;17.92;;;205.70;1792.00;;;;;;4918198;29;20035;-93
2021/04/11 06:27:47;;;;;;;27.02;17.75;;;230.40;1792.00;;;;;;4901034;29;20033;-96
2021/04/11 06:30:21;;;;;;;27.42;17.60;;;230.60;1792.00;;;;;;4924476;29;20032;-93
2021/04/11 06:33:26;;;;;;;27.25;17.00;;;230.70;1740.80;;;;;;4923817;29;20507;-96
2021/04/11 06:36:00;;;;;;;33.55;19.80;;;230.80;1740.80;;;;;;4922013;29;20047;-93
2021/04/11 06:41:07;;;;;;;35.45;21.98;;;231.10;1689.60;;;;;;5104888;23;20057;-93
2021/04/11 06:44:03;;;;;;;33.92;21.58;;;231.20;1638.40;;;;;;4900017;29;20037;-92
2021/04/11 06:46:29;;;;;;;35.28;22.70;;;231.30;1612.80;;;;;;4995920;23;20060;-91
2021/04/11 06:49:27;;;;;;;39.63;23.98;;;231.30;1587.20;;;;;;4919922;29;20035;-92
2021/04/11 06:52:22;;;;;;;40.80;26.63;;;256.00;1612.80;;;;;;4919267;29;20032;-92
2021/04/11 06:54:49;;;;;;;39.30;25.08;;;256.20;1638.40;;;;;;4917280;29;20032;-94
2021/04/11 06:57:33;;;;;;;35.88;21.88;;;256.40;1612.80;;;;;;4907405;29;20036;-95
2021/04/11 07:00:19;;;;;;;39.85;25.23;;;256.60;1612.80;;;;;;4904229;29;20040;-94
2021/04/11 07:03:26;;;;;;;33.67;23.50;;;256.70;1561.60;;;;;;4909714;23;20064;-94
2021/04/11 07:06:52;;;;;;;36.65;23.75;;;281.60;1536.00;;;;;;4921600;29;20056;-93
2021/04/11 07:09:41;;;;;;;34.60;22.73;;;281.70;1561.60;;;;;;4893018;29;20045;-90
2021/04/11 07:12:47;;;;;;;36.47;21.92;;;281.70;1536.00;;;;;;4883071;29;20096;-91
2021/04/11 07:18:57;;;;;;;42.13;25.48;;;282.10;1536.00;;;;;;4910490;29;20036;-86
2021/04/11 07:21:45;;;;;;;38.22;23.77;;;282.30;1536.00;;;;;;4883553;29;20039;-86
2021/04/11 07:24:44;;;;;;;32.10;19.67;;;282.40;1536.00;;;;;;4888627;29;20044;-86
2021/04/11 07:27:50;;;;;;;32.25;19.75;;;282.50;1510.40;;;;;;4883039;29;20039;-86
2021/04/11 07:30:35;;;;;;;30.80;16.77;;;307.30;1561.60;;;;;;4876215;29;20363;-87
2021/04/11 07:41:00;;;;;;;22.80;15.60;;;307.90;1587.20;;;;;;5848400;24;20121;31
2021/04/11 07:57:11;;;;;;;18.95;9.68;;;333.70;1459.20;;;;;;5041304;24;20104;-93
2021/04/11 07:59:37;;;;;;;18.08;12.25;;;333.60;1356.80;;;;;;4856162;29;20045;-94
2021/04/11 08:02:30;;;;;;;17.17;11.68;;;333.70;1433.60;;;;;;4847807;29;20025;-90
2021/04/11 08:05:33;;;;;;;21.40;14.48;;;358.50;1382.40;;;;;;4848710;29;20038;-91
2021/04/11 08:08:43;;;;;;;17.63;12.52;;;358.60;1382.40;;;;;;4847617;29;20045;-91
2021/04/11 08:11:34;;;;;;;15.20;10.43;;;358.40;1356.80;;;;;;4847970;29;20026;-92
2021/04/11 08:14:28;;;;;;;19.48;12.45;;;358.50;1331.20;;;;;;4850299;29;20040;-89
2021/04/11 08:17:13;;;;;;;22.40;14.05;;;358.50;1331.20;;;;;;4846520;29;20503;-88
2021/04/11 08:20:04;;;;;;;21.17;13.18;;;359.10;1408.00;;;;;;4855933;29;20033;-90
2021/04/11 08:23:04;;;;;;;28.30;14.27;;;359.30;1305.60;;;;;;4863350;29;20017;-89
2021/04/11 08:26:19;;;;;;;20.10;13.45;;;359.30;1280.00;;;;;;4857772;29;20041;-91
2021/04/11 08:29:22;;;;;;;17.17;13.57;;;384.00;1305.60;;;;;;4843029;29;20050;-90
2021/04/11 08:32:09;;;;;;;22.48;15.15;;;384.30;1280.00;;;;;;4842628;29;20053;-92
2021/04/11 08:35:21;;;;;;;16.10;10.57;;;384.50;1228.80;;;;;;4849251;29;20038;-86
2021/04/11 08:38:25;;;;;;;17.30;10.10;;;384.80;1203.20;;;;;;4866088;29;20045;-89
2021/04/11 08:41:32;;;;;;;16.55;9.60;;;384.90;1203.20;;;;;;4849930;29;20057;-89
2021/04/11 08:45:12;;;;;;;21.02;12.50;;;409.80;1280.00;;;;;;4843958;23;20068;-88
2021/04/11 08:48:06;;;;;;;13.40;8.18;;;410.00;1152.00;;;;;;5046755;23;20078;-85
2021/04/11 08:51:03;;;;;;;13.90;9.68;;;409.70;1152.00;;;;;;4834683;29;20483;-88
2021/04/11 08:54:05;;;;;;;13.68;8.05;;;410.00;1177.60;;;;;;4831047;29;20046;-89
2021/04/11 08:59:50;;;;;;;12.60;8.00;;;410.30;1126.40;;;;;;4885217;23;20061;-93
2021/04/11 09:09:32;;;;;;;13.10;7.80;;;435.30;1100.80;;;;;;4921403;24;20085;-89
2021/04/11 09:20:32;;;;;;;17.27;9.23;;;436.00;1126.40;;;;;;4866509;29;20506;-89
2021/04/11 09:31:53;;;;;;;12.88;8.65;;;435.40;1049.60;;;;;;4871227;29;20057;-91
2021/04/11 09:35:18;;;;;;;15.98;9.77;;;435.70;1049.60;;;;;;4877686;29;20038;-90
2021/04/11 09:38:31;;;;;;;18.42;9.23;;;436.10;1152.00;;;;;;4852898;29;20040;-90
2021/04/11 09:41:27;;;;;;;17.80;9.70;;;461.10;1152.00;;;;;;4797006;29;20080;-90
2021/04/11 09:44:30;;;;;;;13.57;9.38;;;461.30;1100.80;;;;;;4797375;29;20315;-90
2021/04/11 09:47:42;;;;;;;14.82;9.02;;;461.60;1126.40;;;;;;4846420;23;20057;-90
2021/04/11 09:50:59;;;;;;;15.65;10.27;;;461.70;1075.20;;;;;;4853946;29;20108;-90
2021/04/11 09:54:13;;;;;;;16.27;11.45;;;486.40;1100.80;;;;;;4856933;29;20090;-90
2021/04/11 09:57:03;;;;;;;14.43;9.13;;;461.60;1075.20;;;;;;4851840;29;20109;-89
2021/04/11 10:00:00;;;;;;;12.90;8.52;;;461.00;1126.40;;;;;;4853290;29;20026;-93
2021/04/11 10:14:57;;;;;;;17.33;10.25;;;487.10;1126.40;;;;;;4866564;29;20110;-93
2021/04/11 10:18:16;;;;;;;14.23;8.88;;;487.20;1024.00;;;;;;4853718;29;20559;-91
2021/04/11 10:21:13;;;;;;;31.80;9.73;;;486.80;1024.00;;;;;;4881507;23;20062;-93
2021/04/11 10:23:57;;;;;;;24.88;16.30;;;512.10;998.40;;;;;;4854321;29;20548;-88
2021/04/11 10:27:20;;;;;;;22.35;16.88;;;512.50;1024.00;;;;;;4857734;29;20038;-87
2021/04/11 10:29:57;;;;;;;20.02;13.98;;;512.80;921.60;;;;;;4851559;29;20030;-86
2021/04/11 10:36:19;;;;;;;18.75;13.95;;;512.90;947.20;;;;;;4854182;29;20043;-91
2021/04/11 10:54:42;;;;;;;14.25;9.65;;;512.10;998.40;;;;;;4882360;29;20029;-91
2021/04/11 10:57:32;;;;;;;12.88;8.00;;;512.10;998.40;;;;;;4869862;29;20017;-92
2021/04/11 11:00:55;;;;;;;14.82;9.40;;;512.00;972.80;;;;;;4873918;29;20029;-91
2021/04/11 11:04:00;;;;;;;19.08;9.77;;;512.10;998.40;;;;;;4855349;29;20053;-92
2021/04/11 11:06:56;;;;;;;12.30;7.60;;;512.20;972.80;;;;;;4786810;29;20104;-94
2021/04/11 11:09:59;;;;;;;12.95;8.07;;;512.20;1024.00;;;;;;4794022;29;20039;-93
2021/04/11 11:13:16;;;;;;;31.83;22.98;;;512.30;998.40;;;;;;4779035;29;20048;-94
2021/04/11 11:16:35;;;;;;;16.08;10.60;;;512.50;972.80;;;;;;4738189;30;20631;-96
2021/04/11 11:19:38;;;;;;;12.07;8.55;;;512.70;998.40;;;;;;4736311;30;20057;-95
2021/04/11 11:22:52;;;;;;;18.50;8.60;;;512.80;998.40;;;;;;4729384;30;20061;-93
2021/04/11 11:25:57;;;;;;;16.27;10.60;;;512.50;972.80;;;;;;4798626;23;20553;-90
2021/04/11 11:28:38;;;;;;;12.13;7.95;;;512.80;972.80;;;;;;4853287;29;20125;-91
2021/04/11 11:34:39;;;;;;;12.88;8.52;;;512.70;998.40;;;;;;4880412;23;20037;-92
2021/04/11 11:41:36;;;;;;;17.80;12.00;;;537.70;998.40;;;;;;4832652;29;20059;-90
2021/04/11 11:47:51;;;;;;;17.63;9.40;;;512.40;947.20;;;;;;4841485;23;20060;-87
2021/04/11 11:50:28;;;;;;;18.65;9.40;;;512.80;947.20;;;;;;4857005;29;20501;-89
2021/04/11 11:53:35;;;;;;;11.73;8.00;;;537.80;1049.60;;;;;;4860516;29;20045;-84
2021/04/11 12:00:23;;;;;;;11.52;8.70;;;512.70;896.00;;;;;;4800203;29;20071;-88
2021/04/11 12:07:30;;;;;;;10.98;6.95;;;512.80;921.60;;;;;;4975231;24;20053;-93
2021/04/11 12:13:26;;;;;;;12.48;6.53;;;537.80;947.20;;;;;;4890184;23;20073;-91
2021/04/11 12:16:19;;;;;;;11.90;6.90;;;538.20;947.20;;;;;;4813048;29;20026;-94
2021/04/11 12:19:24;;;;;;;11.05;7.18;;;538.10;896.00;;;;;;4837098;29;20030;-90
2021/04/11 12:21:58;;;;;;;14.40;9.07;;;538.10;896.00;;;;;;4829449;29;20453;-93
2021/04/11 12:25:12;;;;;;;12.88;7.72;;;538.20;896.00;;;;;;4813889;29;20042;-94
2021/04/11 12:27:53;;;;;;;;;;;538.30;921.60;;;;;;4827953;29;20033;-89
2021/04/11 12:49:09;;;;;;;;;;;563.50;896.00;;;;;;4874082;29;20057;-89
2021/04/11 12:52:09;;;;;;;10.93;6.28;;;563.90;870.40;;;;;;4878692;29;19964;-88
2021/04/11 12:54:58;;;;;;;11.45;7.65;;;564.10;844.80;;;;;;4880420;29;20018;-87
2021/04/11 13:10:55;;;;;;;11.45;8.38;;;563.70;844.80;;;;;;4827893;29;20046;-89
2021/04/11 13:14:14;;;;;;;15.90;9.30;;;563.70;844.80;;;;;;4802270;29;20031;-86
2021/04/11 13:20:31;;;;;;;12.57;7.55;;;563.40;870.40;;;;;;4816075;29;20049;-93
2021/04/11 13:23:27;;;;;;;11.52;6.90;;;563.50;844.80;;;;;;4794842;29;20559;-91
2021/04/11 13:26:27;;;;;;;13.38;8.00;;;563.20;844.80;;;;;;4794978;29;20484;-87
2021/04/11 13:29:16;;;;;;;10.90;6.35;;;538.50;844.80;;;;;;4797010;29;20084;-87
2021/04/11 13:31:55;;;;;;;14.48;12.98;;;538.30;844.80;;;;;;4793443;30;20047;-94
2021/04/11 13:34:54;;;;;;;9.65;6.80;;;538.20;844.80;;;;;;4805412;29;20051;-95
2021/04/11 13:37:20;;;;;;;11.43;6.60;;;538.10;844.80;;;;;;4790563;29;20050;-95
2021/04/11 13:39:50;;;;;;;10.48;6.65;;;538.10;819.20;;;;;;4830204;29;20046;-94
2021/04/11 13:43:04;;;;;;;8.82;6.97;;;537.90;844.80;;;;;;4829808;29;20071;-94
2021/04/11 13:45:55;;;;;;;9.50;5.35;;;537.80;870.40;;;;;;4796161;29;20122;-92
2021/04/11 13:48:34;;;;;;;9.38;8.10;;;537.70;844.80;;;;;;4815602;29;20405;-94
2021/04/11 13:51:37;;;;;;;14.23;7.70;;;537.70;870.40;;;;;;4813450;29;20045;-91
2021/04/11 13:54:25;;;;;;;10.27;6.15;;;537.90;844.80;;;;;;4814594;29;20072;-94
2021/04/11 13:57:10;;;;;;;11.90;5.72;;;537.90;896.00;;;;;;4815247;29;20034;-96
2021/04/11 14:00:06;;;;;;;10.52;6.47;;;537.90;896.00;;;;;;4830284;29;20111;-94
2021/04/11 14:02:44;;;;;;;24.20;10.50;;;538.00;870.40;;;;;;4830014;29;20042;-91
2021/04/11 14:05:10;;;;;;;21.90;11.95;;;538.10;870.40;;;;;;4812962;29;20065;-86
2021/04/11 14:07:44;;;;;;;16.48;8.55;;;538.10;844.80;;;;;;4796461;29;20055;-94
2021/04/11 14:10:42;;;;;;;14.90;9.48;;;538.10;870.40;;;;;;4814659;29;20222;-87
2021/04/11 14:13:29;;;;;;;121.53;82.22;;;538.10;819.20;;;;;;4760611;30;20037;-89
2021/04/11 14:16:17;;;;;;;23.05;16.83;;;538.10;870.40;;;;;;4761931;30;20064;-88
2021/04/11 14:19:12;;;;;;;70.50;45.35;;;537.90;870.40;;;;;;4774439;30;20059;-93
2021/04/11 14:21:48;;;;;;;157.80;132.65;;;537.90;870.40;;;;;;4745371;30;20091;-93
2021/04/11 14:24:33;;;;;;;27.88;18.60;;;537.90;844.80;;;;;;4745481;30;20108;-91
2021/04/11 14:26:58;;;;;;;27.85;16.75;;;537.80;870.40;;;;;;4729352;30;20503;-92
2021/04/11 14:30:05;;;;;;;20.35;13.82;;;537.80;870.40;;;;;;4761567;24;20050;-90
2021/04/11 14:33:03;;;;;;;19.52;14.32;;;537.80;896.00;;;;;;4850732;29;20050;-93
2021/04/11 14:35:30;;;;;;;23.83;15.60;;;537.60;870.40;;;;;;4840545;29;20474;-88
2021/04/11 14:38:08;;;;;;;24.70;17.85;;;512.90;896.00;;;;;;4834663;29;20094;-94
2021/04/11 14:40:55;;;;;;;20.13;12.23;;;512.50;947.20;;;;;;4845557;29;20034;-86
2021/04/11 14:47:20;;;;;;;25.40;15.48;;;486.80;1075.20;;;;;;4837777;29;20069;-87
2021/04/11 14:50:05;;;;;;;;;;;486.60;1100.80;;;;;;4846694;29;20022;-86
2021/04/11 14:52:53;;;;;;;14.77;10.20;;;486.60;1100.80;;;;;;4853667;29;19927;-87
2021/04/11 14:55:49;;;;;;;28.55;19.52;;;461.70;1177.60;;;;;;4843836;29;20026;-85
2021/04/11 14:58:22;;;;;;;25.65;14.95;;;461.60;1177.60;;;;;;4805246;29;20082;-88
2021/04/11 15:01:18;;;;;;;39.25;22.73;;;461.50;1177.60;;;;;;4813601;29;20037;-86
2021/04/11 15:03:58;;;;;;;24.27;15.10;;;461.50;1177.60;;;;;;4801795;29;20118;-87
2021/04/11 15:07:02;;;;;;;29.30;21.75;;;461.40;1177.60;;;;;;4799568;29;20523;-86
2021/04/11 15:09:56;;;;;;;25.70;15.77;;;461.30;1228.80;;;;;;4810869;29;20046;-85
2021/04/11 15:12:53;;;;;;;19.35;13.73;;;461.30;1203.20;;;;;;4781442;30;20471;-86
2021/04/11 15:40:53;;;;;;;75.68;51.83;;;461.00;1280.00;;;;;;4824679;29;20090;-85
2021/04/11 15:50:50;;;;;;;19.55;12.77;;;461.10;1228.80;;;;;;4810031;29;20507;-87
